createdAt,value
2023-02-24T00:02:04.303Z,94756.06
2023-02-24T00:04:38.412Z,94747.38
2023-02-24T00:07:05.929Z,94747.03
2023-02-24T00:09:33.232Z,94749.47
2023-02-24T00:12:08.811Z,94741.94
2023-02-24T00:14:37.553Z,94739.34
2023-02-24T00:17:06.219Z,94741.31
2023-02-24T00:19:32.893Z,94743.47
2023-02-24T00:22:01.033Z,94741.31
2023-02-24T00:24:28.282Z,94741.00
2023-02-24T00:26:59.277Z,94733.97
2023-02-24T00:29:28.658Z,94731.06
2023-02-24T00:32:00.077Z,94727.47
2023-02-24T00:34:32.197Z,94732.03
2023-02-24T00:36:58.899Z,94732.88
2023-02-24T00:39:30.487Z,94730.44
2023-02-24T00:42:06.709Z,94728.97
2023-02-24T00:44:40.285Z,94737.13
2023-02-24T00:47:08.494Z,94730.94
2023-02-24T00:49:36.189Z,94734.38
2023-02-24T00:52:08.032Z,94727.47
2023-02-24T00:54:37.836Z,94724.22
2023-02-24T00:57:04.466Z,94732.22
2023-02-24T00:59:31.103Z,94718.97
2023-02-24T01:01:57.923Z,94725.38
2023-02-24T01:04:24.664Z,94715.06
2023-02-24T01:06:59.998Z,94715.38
2023-02-24T01:09:29.102Z,94712.28
2023-02-24T01:12:15.864Z,94711.47
2023-02-24T01:14:47.567Z,94706.56
2023-02-24T01:17:15.936Z,94698.53
2023-02-24T01:19:44.276Z,94694.31
2023-02-24T01:22:14.944Z,94684.81
2023-02-24T01:24:43.358Z,94694.63
2023-02-24T01:27:12.704Z,94688.88
2023-02-24T01:29:39.688Z,94692.50
2023-02-24T01:32:13.137Z,94695.06
2023-02-24T01:34:42.426Z,94694.53
2023-02-24T01:37:10.168Z,94683.41
2023-02-24T01:39:37.213Z,94678.16
2023-02-24T01:42:06.288Z,94684.38
2023-02-24T01:44:33.198Z,94682.06
2023-02-24T01:47:03.855Z,94687.00
2023-02-24T01:49:41.612Z,94687.59
2023-02-24T01:52:30.313Z,94689.53
2023-02-24T01:55:01.516Z,94685.97
2023-02-24T01:57:31.414Z,94681.38
2023-02-24T02:00:11.054Z,94675.53
2023-02-24T02:02:46.352Z,94668.91
2023-02-24T02:05:14.167Z,94661.72
2023-02-24T02:07:42.120Z,94655.09
2023-02-24T02:10:10.123Z,94656.53
2023-02-24T02:12:44.070Z,94651.34
2023-02-24T02:15:13.480Z,94644.81
2023-02-24T02:18:07.750Z,94639.06
2023-02-24T02:21:28.328Z,94648.53
2023-02-24T02:24:30.185Z,94643.09
2023-02-24T02:27:20.959Z,94644.94
2023-02-24T02:30:23.346Z,94635.94
2023-02-24T02:33:21.504Z,94639.91
2023-02-24T02:36:00.493Z,94643.34
2023-02-24T02:38:34.937Z,94636.25
2023-02-24T02:41:11.355Z,94642.47
2023-02-24T02:43:50.343Z,94646.72
2023-02-24T02:46:34.607Z,94645.59
2023-02-24T02:49:20.874Z,94639.06
2023-02-24T02:51:56.864Z,94643.75
2023-02-24T02:54:33.595Z,94643.75
2023-02-24T02:57:09.446Z,94636.41
2023-02-24T02:59:40.573Z,94638.72
2023-02-24T03:02:15.063Z,94642.28
2023-02-24T03:04:48.348Z,94640.50
2023-02-24T03:07:17.694Z,94637.56
2023-02-24T03:09:50.538Z,94638.72
2023-02-24T03:12:21.424Z,94640.16
2023-02-24T03:15:00.354Z,94643.06
2023-02-24T03:17:33.021Z,94630.84
2023-02-24T03:20:16.185Z,94629.72
2023-02-24T03:23:10.939Z,94631.16
2023-02-24T03:26:16.774Z,94629.53
2023-02-24T03:28:53.594Z,94629.06
2023-02-24T03:31:37.875Z,94634.09
2023-02-24T03:34:24.107Z,94628.88
2023-02-24T03:36:50.752Z,94628.56
2023-02-24T03:39:17.903Z,94623.22
2023-02-24T03:42:14.815Z,94615.69
2023-02-24T03:44:41.402Z,94625.34
2023-02-24T03:47:09.549Z,94625.16
2023-02-24T03:49:38.365Z,94619.34
2023-02-24T03:52:21.397Z,94610.19
2023-02-24T03:55:06.273Z,94617.22
2023-02-24T03:57:55.020Z,94612.97
2023-02-24T04:00:49.683Z,94609.88
2023-02-24T04:03:25.507Z,94608.91
2023-02-24T04:06:05.768Z,94615.94
2023-02-24T04:08:40.771Z,94600.44
2023-02-24T04:11:21.209Z,94593.09
2023-02-24T04:13:53.542Z,94598.16
2023-02-24T04:16:43.073Z,94594.75
2023-02-24T04:19:17.271Z,94593.09
2023-02-24T04:21:50.988Z,94591.00
2023-02-24T04:24:27.600Z,94585.09
2023-02-24T04:26:58.878Z,94586.72
2023-02-24T04:29:28.789Z,94587.38
2023-02-24T04:32:03.068Z,94593.28
2023-02-24T04:34:32.439Z,94588.19
2023-02-24T04:37:02.254Z,94589.66
2023-02-24T04:39:30.874Z,94583.16
2023-02-24T04:42:01.508Z,94573.50
2023-02-24T04:44:28.272Z,94576.59
2023-02-24T04:46:55.967Z,94567.47
2023-02-24T04:49:22.648Z,94567.94
2023-02-24T04:51:51.424Z,94554.22
2023-02-24T04:54:20.391Z,94562.38
2023-02-24T04:56:50.643Z,94551.47
2023-02-24T04:59:18.763Z,94551.63
2023-02-24T05:01:45.433Z,94549.00
2023-02-24T05:04:14.038Z,94541.00
2023-02-24T05:06:44.797Z,94536.75
2023-02-24T05:09:18.829Z,94541.97
2023-02-24T05:11:49.254Z,94532.53
2023-02-24T05:14:18.543Z,94532.84
2023-02-24T05:16:47.521Z,94525.47
2023-02-24T05:19:35.121Z,94520.44
2023-02-24T05:22:03.231Z,94520.25
2023-02-24T05:24:31.117Z,94518.31
2023-02-24T05:27:03.559Z,94518.13
2023-02-24T05:29:32.836Z,94515.03
2023-02-24T05:31:59.933Z,94506.38
2023-02-24T05:34:32.394Z,94504.94
2023-02-24T05:37:01.536Z,94509.66
2023-02-24T05:39:28.387Z,94500.50
2023-02-24T05:41:57.287Z,94506.22
2023-02-24T05:44:26.532Z,94500.19
2023-02-24T05:46:58.653Z,94502.78
2023-02-24T05:49:32.973Z,94498.69
2023-02-24T05:52:02.684Z,94498.22
2023-02-24T05:54:35.690Z,94502.78
2023-02-24T05:57:06.268Z,94503.75
2023-02-24T05:59:33.627Z,94494.91
2023-02-24T06:02:06.856Z,94497.34
2023-02-24T06:04:40.813Z,94494.25
2023-02-24T06:07:19.231Z,94491.81
2023-02-24T06:09:50.043Z,94488.38
2023-02-24T06:12:18.440Z,94490.66
2023-02-24T06:14:45.106Z,94495.56
2023-02-24T06:17:11.707Z,94495.41
2023-02-24T06:19:39.287Z,94495.91
2023-02-24T06:22:10.771Z,94498.34
2023-02-24T06:24:37.709Z,94488.69
2023-02-24T06:27:10.389Z,94499.34
2023-02-24T06:29:37.712Z,94490.84
2023-02-24T06:32:08.575Z,94499.03
2023-02-24T06:34:36.824Z,94504.44
2023-02-24T06:37:04.841Z,94502.97
2023-02-24T06:39:33.927Z,94503.41
2023-02-24T06:42:05.313Z,94498.84
2023-02-24T06:44:33.772Z,94498.84
2023-02-24T06:47:00.769Z,94512.75
2023-02-24T06:49:27.928Z,94511.44
2023-02-24T06:51:55.526Z,94514.53
2023-02-24T06:54:23.378Z,94504.53
2023-02-24T06:56:50.030Z,94503.75
2023-02-24T06:59:21.627Z,94505.38
2023-02-24T07:01:48.931Z,94512.88
2023-02-24T07:04:17.010Z,94506.16
2023-02-24T07:06:50.280Z,94509.06
2023-02-24T07:09:18.807Z,94509.72
2023-02-24T07:11:48.218Z,94507.44
2023-02-24T07:14:14.863Z,94498.69
2023-02-24T07:16:45.367Z,94499.66
2023-02-24T07:19:15.370Z,94499.47
2023-02-24T07:21:46.581Z,94496.44
2023-02-24T07:24:20.179Z,94500.28
2023-02-24T07:26:51.678Z,94493.88
2023-02-24T07:29:18.429Z,94493.47
2023-02-24T07:31:45.267Z,94492.56
2023-02-24T07:34:14.892Z,94484.22
2023-02-24T07:36:49.159Z,94488.13
2023-02-24T07:39:16.956Z,94486.28
2023-02-24T07:41:49.475Z,94494.69
2023-02-24T07:44:18.031Z,94490.28
2023-02-24T07:46:45.091Z,94473.03
2023-02-24T07:49:19.670Z,94470.25
2023-02-24T07:51:52.363Z,94471.34
2023-02-24T07:54:21.153Z,94476.38
2023-02-24T07:56:56.382Z,94467.97
2023-02-24T07:59:28.878Z,94468.69
2023-02-24T08:01:56.393Z,94475.38
2023-02-24T08:04:32.922Z,94463.75
2023-02-24T08:07:03.343Z,94465.72
2023-02-24T08:09:46.739Z,94472.19
2023-02-24T08:12:22.701Z,94468.38
2023-02-24T08:14:53.864Z,94461.91
2023-02-24T08:17:26.707Z,94451.53
2023-02-24T08:20:15.428Z,94449.06
2023-02-24T08:22:47.318Z,94453.25
2023-02-24T08:25:19.380Z,94434.94
2023-02-24T08:28:08.471Z,94444.09
2023-02-24T08:30:46.399Z,94442.94
2023-02-24T08:33:22.023Z,94442.69
2023-02-24T08:36:02.396Z,94441.09
2023-02-24T08:38:41.798Z,94434.53
2023-02-24T08:41:19.929Z,94424.13
2023-02-24T08:43:48.389Z,94426.84
2023-02-24T08:46:18.987Z,94419.41
2023-02-24T08:48:49.197Z,94414.59
2023-02-24T08:51:29.862Z,94412.22
2023-02-24T08:53:59.790Z,94419.50
2023-02-24T08:56:29.403Z,94411.16
2023-02-24T08:59:05.446Z,94408.81
2023-02-24T09:01:38.626Z,94413.97
2023-02-24T09:04:11.142Z,94413.03
2023-02-24T09:06:53.848Z,94406.06
2023-02-24T09:09:22.461Z,94406.28
2023-02-24T09:11:56.008Z,94407.50
2023-02-24T09:14:29.540Z,94405.09
2023-02-24T09:17:11.439Z,94393.09
2023-02-24T09:19:46.203Z,94401.25
2023-02-24T09:22:34.348Z,94382.00
2023-02-24T09:25:24.012Z,94385.63
2023-02-24T09:28:07.832Z,94383.78
2023-02-24T09:30:51.379Z,94381.97
2023-02-24T09:33:41.624Z,94369.63
2023-02-24T09:36:28.296Z,94367.38
2023-02-24T09:38:59.679Z,94363.72
2023-02-24T09:41:54.584Z,94362.72
2023-02-24T09:44:49.319Z,94354.78
2023-02-24T09:47:56.720Z,94359.47
2023-02-24T09:50:47.255Z,94358.03
2023-02-24T09:53:18.758Z,94351.94
2023-02-24T09:56:06.375Z,94345.06
2023-02-24T09:58:47.758Z,94339.97
2023-02-24T10:01:33.355Z,94341.78
2023-02-24T10:04:18.632Z,94330.81
2023-02-24T10:06:49.567Z,94332.81
2023-02-24T10:09:34.474Z,94336.19
2023-02-24T10:12:13.800Z,94329.13
2023-02-24T10:14:51.484Z,94326.53
2023-02-24T10:17:30.651Z,94316.44
2023-02-24T10:20:13.953Z,94314.22
2023-02-24T10:22:57.889Z,94304.78
2023-02-24T10:25:54.436Z,94302.88
2023-02-24T10:28:36.020Z,94307.44
2023-02-24T10:31:24.930Z,94295.75
2023-02-24T10:34:00.846Z,94297.25
2023-02-24T10:36:36.516Z,94298.69
2023-02-24T10:39:20.402Z,94295.44
2023-02-24T10:41:57.150Z,94289.63
2023-02-24T10:44:26.818Z,94288.88
2023-02-24T10:47:14.028Z,94287.34
2023-02-24T10:49:57.226Z,94277.34
2023-02-24T10:53:01.896Z,94276.00
2023-02-24T10:55:45.595Z,94271.75
2023-02-24T10:58:27.702Z,94266.97
2023-02-24T11:01:12.834Z,94268.81
2023-02-24T11:03:47.815Z,94264.88
2023-02-24T11:06:43.088Z,94262.88
2023-02-24T11:09:28.673Z,94260.22
2023-02-24T11:12:15.495Z,94252.66
2023-02-24T11:15:13.715Z,94246.50
2023-02-24T11:17:51.036Z,94240.19
2023-02-24T11:20:47.353Z,94243.88
2023-02-24T11:23:43.043Z,94227.22
2023-02-24T11:26:37.918Z,94226.25
2023-02-24T11:29:44.341Z,94223.00
2023-02-24T11:32:34.360Z,94216.34
2023-02-24T11:35:55.249Z,94209.59
2023-02-24T11:38:34.468Z,94211.28
2023-02-24T11:41:27.278Z,94201.28
2023-02-24T11:44:47.740Z,94185.19
2023-02-24T11:47:18.224Z,94191.81
2023-02-24T11:50:04.933Z,94177.69
2023-02-24T11:52:38.719Z,94170.56
2023-02-24T11:55:26.744Z,94168.44
2023-02-24T11:57:59.183Z,94165.69
2023-02-24T12:00:30.961Z,94169.81
2023-02-24T12:03:18.315Z,94166.88
2023-02-24T12:05:51.520Z,94146.22
2023-02-24T12:08:29.224Z,94150.09
2023-02-24T12:11:07.050Z,94149.66
2023-02-24T12:13:51.439Z,94144.69
2023-02-24T12:16:34.476Z,94141.44
2023-02-24T12:19:19.861Z,94138.66
2023-02-24T12:21:53.593Z,94127.31
2023-02-24T12:24:21.314Z,94137.16
2023-02-24T12:26:58.886Z,94131.28
2023-02-24T12:29:34.373Z,94126.53
2023-02-24T12:32:30.233Z,94121.13
2023-02-24T12:35:11.784Z,94113.91
2023-02-24T12:37:53.416Z,94107.34
2023-02-24T12:40:35.356Z,94110.66
2023-02-24T12:43:08.112Z,94118.59
2023-02-24T12:46:02.163Z,94109.03
2023-02-24T12:48:50.565Z,94106.75
2023-02-24T12:51:36.572Z,94102.78
2023-02-24T12:54:28.090Z,94094.41
2023-02-24T12:57:11.440Z,94083.31
2023-02-24T12:59:39.971Z,94088.91
2023-02-24T13:02:23.282Z,94086.47
2023-02-24T13:05:13.468Z,94089.50
2023-02-24T13:07:40.092Z,94080.81
2023-02-24T13:10:24.511Z,94082.31
2023-02-24T13:13:29.505Z,94079.41
2023-02-24T13:15:58.356Z,94071.50
2023-02-24T13:18:27.488Z,94073.44
2023-02-24T13:21:22.594Z,94067.38
2023-02-24T13:24:01.093Z,94060.97
2023-02-24T13:26:30.144Z,94070.53
2023-02-24T13:29:03.509Z,94065.56
2023-02-24T13:31:43.404Z,94052.41
2023-02-24T13:34:25.984Z,94045.44
2023-02-24T13:36:52.520Z,94049.31
2023-02-24T13:39:44.267Z,94040.94
2023-02-24T13:42:20.108Z,94034.28
2023-02-24T13:44:52.978Z,94042.16
2023-02-24T13:47:50.536Z,94028.94
2023-02-24T13:50:46.040Z,94022.50
2023-02-24T13:53:30.072Z,94019.59
2023-02-24T13:56:21.487Z,94033.91
2023-02-24T13:59:08.049Z,94026.38
2023-02-24T14:01:47.840Z,94032.34
2023-02-24T14:04:19.103Z,94026.66
2023-02-24T14:06:52.870Z,94032.97
2023-02-24T14:09:27.057Z,94025.25
2023-02-24T14:12:00.188Z,94018.22
2023-02-24T14:14:28.093Z,94029.00
2023-02-24T14:16:54.748Z,94018.28
2023-02-24T14:19:21.472Z,94021.13
2023-02-24T14:21:51.617Z,94013.63
2023-02-24T14:24:19.965Z,94005.16
2023-02-24T14:26:52.626Z,94000.09
2023-02-24T14:29:31.882Z,94004.13
2023-02-24T14:31:59.561Z,94010.66
2023-02-24T14:34:29.854Z,94004.03
2023-02-24T14:36:59.058Z,94006.41
2023-02-24T14:39:29.350Z,94003.78
2023-02-24T14:42:08.515Z,93991.22
2023-02-24T14:44:41.511Z,93996.09
2023-02-24T14:47:12.012Z,93988.09
2023-02-24T14:49:38.601Z,93983.00
2023-02-24T14:52:31.682Z,93981.69
2023-02-24T14:55:15.626Z,93976.22
2023-02-24T14:57:55.271Z,93972.31
2023-02-24T15:00:35.402Z,93967.66
2023-02-24T15:03:15.657Z,93979.91
2023-02-24T15:05:45.439Z,93978.22
2023-02-24T15:08:43.967Z,93978.91
2023-02-24T15:11:16.478Z,93959.66
2023-02-24T15:13:50.442Z,93928.44
2023-02-24T15:16:25.886Z,93957.34
2023-02-24T15:18:54.627Z,93944.94
2023-02-24T15:21:34.440Z,93949.06
2023-02-24T15:24:03.965Z,93967.94
2023-02-24T15:26:35.517Z,93957.50
2023-02-24T15:29:27.548Z,93958.84
2023-02-24T15:31:55.833Z,93949.78
2023-02-24T15:34:28.444Z,93944.31
2023-02-24T15:37:01.748Z,93936.63
2023-02-24T15:39:31.054Z,93930.91
2023-02-24T15:42:19.782Z,93928.38
2023-02-24T15:45:01.977Z,93924.06
2023-02-24T15:47:32.618Z,93915.75
2023-02-24T15:49:59.386Z,93909.72
2023-02-24T15:52:28.460Z,93908.13
2023-02-24T15:54:57.847Z,93903.97
2023-02-24T15:57:25.051Z,93902.50
2023-02-24T15:59:52.443Z,93895.66
2023-02-24T16:02:21.480Z,93885.56
2023-02-24T16:04:49.013Z,93883.53
2023-02-24T16:07:30.486Z,93884.16
2023-02-24T16:09:58.511Z,93884.59
2023-02-24T16:12:35.862Z,93888.84
2023-02-24T16:15:05.890Z,93875.09
2023-02-24T16:17:39.132Z,93876.72
2023-02-24T16:20:27.564Z,93873.06
2023-02-24T16:23:04.801Z,93882.34
2023-02-24T16:25:41.016Z,93884.44
2023-02-24T16:28:14.733Z,93883.41
2023-02-24T16:30:42.194Z,93883.41
2023-02-24T16:33:14.386Z,93885.22
2023-02-24T16:35:44.115Z,93880.31
2023-02-24T16:38:15.392Z,93886.63
2023-02-24T16:40:45.265Z,93904.88
2023-02-24T16:43:13.328Z,93901.25
2023-02-24T16:45:41.261Z,93909.38
2023-02-24T16:48:18.612Z,93906.53
2023-02-24T16:50:45.247Z,93905.06
2023-02-24T16:53:18.707Z,93904.72
2023-02-24T16:55:45.996Z,93904.72
2023-02-24T16:58:13.167Z,93900.03
2023-02-24T17:00:41.797Z,93921.03
2023-02-24T17:03:34.653Z,93904.06
2023-02-24T17:06:01.247Z,93912.91
2023-02-24T17:08:27.848Z,93922.75
2023-02-24T17:10:54.522Z,93919.25
2023-02-24T17:13:22.316Z,93900.38
2023-02-24T17:15:55.298Z,93908.22
2023-02-24T17:18:22.584Z,93913.69
2023-02-24T17:20:50.014Z,93895.44
2023-02-24T17:23:16.753Z,93901.56
2023-02-24T17:25:43.543Z,93909.59
2023-02-24T17:28:10.912Z,93905.06
2023-02-24T17:30:38.436Z,93896.63
2023-02-24T17:33:05.477Z,93884.34
2023-02-24T17:35:32.009Z,93878.50
2023-02-24T17:37:58.665Z,93898.53
2023-02-24T17:40:25.322Z,93893.75
2023-02-24T17:42:51.869Z,93895.59
2023-02-24T17:45:18.642Z,93883.09
2023-02-24T17:47:45.255Z,93874.75
2023-02-24T17:50:12.947Z,93863.97
2023-02-24T17:52:39.942Z,93855.34
2023-02-24T17:55:07.460Z,93858.09
2023-02-24T17:57:35.042Z,93859.91
2023-02-24T18:00:01.690Z,93845.44
2023-02-24T18:02:39.288Z,93840.88
2023-02-24T18:05:06.115Z,93835.66
2023-02-24T18:07:32.623Z,93829.84
2023-02-24T18:09:59.782Z,93833.31
2023-02-24T18:12:27.259Z,93822.69
2023-02-24T18:15:07.239Z,93819.25
2023-02-24T18:17:35.594Z,93816.66
2023-02-24T18:20:02.301Z,93814.03
2023-02-24T18:22:29.098Z,93806.41
2023-02-24T18:24:55.774Z,93808.97
2023-02-24T18:27:22.360Z,93794.28
2023-02-24T18:29:48.954Z,93799.72
2023-02-24T18:32:15.752Z,93794.06
2023-02-24T18:34:42.494Z,93792.66
2023-02-24T18:37:09.099Z,93788.03
2023-02-24T18:39:35.625Z,93788.06
2023-02-24T18:42:02.180Z,93791.09
2023-02-24T18:44:28.749Z,93791.25
2023-02-24T18:46:55.420Z,93784.56
2023-02-24T18:49:22.256Z,93776.13
2023-02-24T18:51:49.081Z,93772.06
2023-02-24T18:54:16.549Z,93769.53
2023-02-24T18:56:43.426Z,93769.31
2023-02-24T18:59:10.126Z,93776.38
2023-02-24T19:01:39.263Z,93776.97
2023-02-24T19:04:07.990Z,93781.22
2023-02-24T19:06:35.954Z,93774.56
2023-02-24T19:09:06.686Z,93766.88
2023-02-24T19:11:33.701Z,93774.56
2023-02-24T19:14:01.396Z,93770.28
2023-02-24T19:16:28.504Z,93767.91
2023-02-24T19:18:56.718Z,93766.03
2023-02-24T19:21:25.280Z,93771.94
2023-02-24T19:23:52.118Z,93772.34
2023-02-24T19:26:25.786Z,93763.63
2023-02-24T19:28:53.233Z,93768.09
2023-02-24T19:31:23.465Z,93773.69
2023-02-24T19:34:00.229Z,93799.22
2023-02-24T19:36:28.507Z,93816.56
2023-02-24T19:38:55.113Z,93803.59
2023-02-24T19:41:22.130Z,93793.34
2023-02-24T19:43:48.823Z,93788.06
2023-02-24T19:46:16.658Z,93786.53
2023-02-24T19:48:43.949Z,93784.75
2023-02-24T19:51:14.600Z,93775.38
2023-02-24T19:53:41.939Z,93785.31
2023-02-24T19:56:08.757Z,93778.56
2023-02-24T19:58:35.865Z,93775.78
2023-02-24T20:01:13.411Z,93768.72
2023-02-24T20:03:41.738Z,93769.16
2023-02-24T20:06:19.272Z,93772.97
2023-02-24T20:08:45.964Z,93771.63
2023-02-24T20:11:13.383Z,93778.94
2023-02-24T20:13:39.966Z,93770.66
2023-02-24T20:16:09.627Z,93780.53
2023-02-24T20:18:36.245Z,93781.34
2023-02-24T20:21:02.808Z,93773.31
2023-02-24T20:23:29.870Z,93779.59
2023-02-24T20:25:56.921Z,93767.22
2023-02-24T20:28:24.017Z,93766.66
2023-02-24T20:30:51.204Z,93757.94
2023-02-24T20:33:18.464Z,93754.34
2023-02-24T20:35:45.063Z,93742.44
2023-02-24T20:38:12.046Z,93747.06
2023-02-24T20:40:38.871Z,93751.47
2023-02-24T20:43:07.496Z,93755.53
2023-02-24T20:45:36.323Z,93755.72
2023-02-24T20:48:03.016Z,93756.69
2023-02-24T20:50:30.359Z,93744.63
2023-02-24T20:52:56.936Z,93745.81
2023-02-24T20:55:23.463Z,93752.91
2023-02-24T20:57:50.389Z,93750.25
2023-02-24T21:00:17.466Z,93760.28
2023-02-24T21:02:44.083Z,93765.19
2023-02-24T21:05:18.725Z,93772.59
2023-02-24T21:07:45.244Z,93786.56
2023-02-24T21:10:12.233Z,93801.00
2023-02-24T21:12:38.749Z,93787.41
2023-02-24T21:15:06.306Z,93803.38
2023-02-24T21:17:34.256Z,93784.00
2023-02-24T21:20:01.688Z,93786.69
2023-02-24T21:22:31.853Z,93802.22
2023-02-24T21:24:58.416Z,93789.25
2023-02-24T21:27:25.882Z,93776.88
2023-02-24T21:29:53.353Z,93788.72
2023-02-24T21:32:20.099Z,93785.75
2023-02-24T21:34:46.804Z,93803.09
2023-02-24T21:37:13.337Z,93791.88
2023-02-24T21:39:39.892Z,93794.47
2023-02-24T21:42:07.397Z,93799.47
2023-02-24T21:44:33.951Z,93793.94
2023-02-24T21:47:00.496Z,93791.72
2023-02-24T21:49:27.003Z,93779.88
2023-02-24T21:51:55.169Z,93780.69
2023-02-24T21:54:22.135Z,93773.44
2023-02-24T21:56:48.671Z,93771.69
2023-02-24T21:59:15.232Z,93763.88
2023-02-24T22:01:43.728Z,93783.50
2023-02-24T22:04:14.366Z,93778.56
2023-02-24T22:06:42.105Z,93787.31
2023-02-24T22:09:10.355Z,93786.28
2023-02-24T22:11:39.324Z,93810.97
2023-02-24T22:14:10.558Z,93811.41
2023-02-24T22:16:37.541Z,93803.50
2023-02-24T22:19:04.954Z,93801.56
2023-02-24T22:21:31.855Z,93803.63
2023-02-24T22:24:00.967Z,93801.31
2023-02-24T22:26:29.170Z,93803.38
2023-02-24T22:28:56.273Z,93813.72
2023-02-24T22:31:25.808Z,93817.28
2023-02-24T22:33:52.417Z,93795.41
2023-02-24T22:36:22.680Z,93793.38
2023-02-24T22:38:49.448Z,93773.34
2023-02-24T22:41:21.164Z,93773.72
2023-02-24T22:43:48.388Z,93771.22
2023-02-24T22:46:21.232Z,93764.88
2023-02-24T22:48:48.076Z,93770.19
2023-02-24T22:51:15.047Z,93761.94
2023-02-24T22:53:44.302Z,93772.19
2023-02-24T22:56:12.456Z,93779.97
2023-02-24T22:58:38.981Z,93778.78
2023-02-24T23:01:10.955Z,93800.00
2023-02-24T23:03:38.169Z,93826.16
2023-02-24T23:06:08.201Z,93853.28
2023-02-24T23:08:37.797Z,93848.41
2023-02-24T23:11:15.676Z,93871.56
2023-02-24T23:13:46.395Z,93868.19
2023-02-24T23:16:15.854Z,93864.28
2023-02-24T23:18:48.621Z,93860.91
2023-02-24T23:21:16.135Z,93863.72
2023-02-24T23:23:42.766Z,93875.06
2023-02-24T23:26:09.385Z,93873.63
2023-02-24T23:28:35.991Z,93862.84
2023-02-24T23:31:02.849Z,93862.69
2023-02-24T23:33:29.527Z,93866.03
2023-02-24T23:35:56.096Z,93870.91
2023-02-24T23:38:22.717Z,93877.31
2023-02-24T23:40:50.569Z,93890.78
2023-02-24T23:43:17.971Z,93911.00
2023-02-24T23:45:44.845Z,93905.09
2023-02-24T23:48:13.519Z,93885.38
2023-02-24T23:50:41.780Z,93883.63
2023-02-24T23:53:09.393Z,93897.28
2023-02-24T23:55:40.030Z,93921.38
2023-02-24T23:58:07.767Z,93917.66
